Athol Springs, NY

10:03 AM EDT on August 31, 2015 (GMT -0400)
Hamburg | | Change Station
CLOSE
Current Station
Personal Weather Station
Location: Hamburg, NY
Elevation: 594 ft
Nearby Weather Stations

Elev 594 ft 42.76 °N, 78.88 °W | Updated 6 minutes ago

Overcast
Overcast
73.4 °F
Feels Like 72 °F
N
13.0
Wind Variable Wind from WSW
Gusts 17.0 mph

Today
High -- | Low -- °F
--% Chance of Precip.
Yesterday
High -- | Low -- °F
Precip. -- in
6:38 AM 7:52 PM
Waning Gibbous, 95% visible
Pressure 30.04 in
Visibility 6.0 miles
Clouds Scattered Clouds 900 ft
Overcast 5000 ft
Heat Index 72 °F
Dew Point 69 °F
Humidity 87%
Rainfall 0.00 in
Snow Depth Not available.
UV 1 out of 12
Pollen 10.80 out of 12
Air Quality Not available.
Flu Activity Not available.
METAR KBUF 311254Z 25009KT 6SM BR SCT009 OVC050 23/21 A3005 RMK AO2 SLP172 T02280206
Pressure 30.04 in
Visibility 6.0 miles
Clouds Scattered Clouds 900 ft
Overcast 5000 ft
Heat Index 72 °F
Dew Point 69 °F
Humidity 87%
Rainfall 0.00 in
Snow Depth Not available.
UV 1 out of 12
Pollen 10.80 out of 12
Air Quality Not available.
Flu Activity Not available.
METAR KBUF 311254Z 25009KT 6SM BR SCT009 OVC050 23/21 A3005 RMK AO2 SLP172 T02280206

10-Day Weather Forecast

×

Almanac

Astronomy

Aug. 31, 2015 Rise Set
Actual Time
Civil Twilight
Nautical Twilight
Astronomical Twilight
Moon
Length of Visible Light
Length of Day
Tomorrow will be .
, % of the Moon is Illuminated

Today's Extremes

State Highs State Lows

Community

WunderPhotos

Upload Photos

1,851,243 photos uploaded!

WunderBlogs® & News

Nearby

Air Quality

  Air Quality AQ Index Pollutant
Not available.

Snow Depth

Station Depth Elevation

Earthquake Activity

City Distance Mag. Time & Date
Minimum magnitude displayed is 2.5.

Coastal Water Temperatures

Place Temperature

Stations

Nearby Weather Stations

Station Location Temp. Windchill Dew Point Humidity Wind Precip. Elev Updated Type